Time;durP1;ratioP1;P1;durP2;ratioP2;P2;SDS_P1;SDS_P2;PMS_P1;PMS_P2;Temp;Humidity;BMP_temperature;BMP_pressure;BME280_temperature;BME280_humidity;BME280_pressure;Samples;Min_cycle;Max_cycle;Signal;HPM_P1;HPM_P2
2022/02/21 00:00:27;;;;;;;11.03;2.00;;;7.60;99.90;;;;;;467218;254;27910;-76
2022/02/21 00:02:29;;;;;;;7.83;2.07;;;7.60;99.90;;;;;;467160;254;28875;-76
2022/02/21 00:04:30;;;;;;;2.80;2.07;;;7.50;99.90;;;;;;467137;254;28035;-76
2022/02/21 00:06:31;;;;;;;9.13;2.60;;;7.60;99.90;;;;;;467187;254;27976;-76
2022/02/21 00:08:32;;;;;;;6.43;2.07;;;7.60;99.90;;;;;;467164;254;27986;-76
2022/02/21 00:10:34;;;;;;;5.40;2.33;;;7.60;99.90;;;;;;467165;254;27904;-76
2022/02/21 00:12:35;;;;;;;9.13;2.77;;;7.60;99.90;;;;;;467162;254;28340;-76
2022/02/21 00:14:36;;;;;;;4.23;2.37;;;7.60;99.90;;;;;;467178;254;28403;-76
2022/02/21 00:16:37;;;;;;;3.30;1.90;;;7.60;99.90;;;;;;467139;254;28783;-76
2022/02/21 00:18:39;;;;;;;4.93;2.27;;;7.60;99.90;;;;;;467201;254;28072;-76
2022/02/21 00:20:40;;;;;;;2.60;2.13;;;7.60;99.90;;;;;;467158;254;28070;-74
2022/02/21 00:22:41;;;;;;;5.83;2.00;;;7.60;99.90;;;;;;467204;254;28068;-76
2022/02/21 00:24:42;;;;;;;6.60;2.10;;;7.60;99.90;;;;;;467169;254;27575;-76
2022/02/21 00:26:44;;;;;;;6.40;2.10;;;7.60;99.90;;;;;;467155;254;27615;-76
2022/02/21 00:28:45;;;;;;;6.10;2.00;;;7.60;99.90;;;;;;467159;254;27803;-76
2022/02/21 00:30:46;;;;;;;3.83;2.17;;;7.60;99.90;;;;;;467156;254;28287;-76
2022/02/21 00:32:48;;;;;;;4.35;2.17;;;7.60;99.90;;;;;;467157;254;28162;-76
2022/02/21 00:34:49;;;;;;;3.17;1.70;;;7.60;99.90;;;;;;467174;254;27451;-76
2022/02/21 00:36:50;;;;;;;3.53;1.97;;;7.60;99.90;;;;;;467133;252;28028;-76
2022/02/21 00:38:51;;;;;;;2.27;1.60;;;7.60;99.90;;;;;;467174;251;27622;-77
2022/02/21 00:40:53;;;;;;;3.27;2.17;;;7.60;99.90;;;;;;467185;254;27925;-77
2022/02/21 00:42:54;;;;;;;4.40;2.13;;;7.60;99.90;;;;;;467158;254;28148;-76
2022/02/21 00:44:59;;;;;;;6.10;1.80;;;7.60;99.90;;;;;;467142;252;27570;-76
2022/02/21 00:47:00;;;;;;;4.33;1.90;;;7.60;99.90;;;;;;467136;254;27947;-76
2022/02/21 00:49:01;;;;;;;2.10;1.90;;;7.70;99.90;;;;;;467148;254;28087;-76
2022/02/21 00:51:02;;;;;;;7.63;2.23;;;7.70;99.90;;;;;;467173;254;27591;-76
2022/02/21 00:53:03;;;;;;;4.33;1.70;;;7.70;99.90;;;;;;467177;254;28342;-76
2022/02/21 00:55:04;;;;;;;2.83;2.00;;;7.70;99.90;;;;;;467138;254;27954;-76
2022/02/21 00:57:05;;;;;;;6.77;2.67;;;7.70;99.90;;;;;;467144;254;28055;-77
2022/02/21 00:59:09;;;;;;;5.17;2.17;;;;;;;;;;467159;253;27898;-76
2022/02/21 01:01:11;;;;;;;2.80;2.33;;;7.70;99.90;;;;;;467165;253;27194;-77
2022/02/21 01:03:13;;;;;;;2.97;1.83;;;7.70;99.90;;;;;;467125;252;27983;-76
2022/02/21 01:05:13;;;;;;;3.97;1.80;;;7.70;99.90;;;;;;467135;252;28051;-76
2022/02/21 01:07:14;;;;;;;4.90;1.60;;;7.70;99.90;;;;;;467170;254;28081;-76
2022/02/21 01:09:16;;;;;;;3.07;1.90;;;7.60;99.90;;;;;;467190;254;28065;-76
2022/02/21 01:11:18;;;;;;;3.23;1.70;;;7.60;99.90;;;;;;467152;252;27691;-76
2022/02/21 01:13:18;;;;;;;5.90;1.90;;;7.70;99.90;;;;;;467136;254;27797;-76
2022/02/21 01:15:19;;;;;;;3.90;1.77;;;7.60;99.90;;;;;;467151;254;27980;-76
2022/02/21 01:17:22;;;;;;;3.10;1.60;;;7.70;99.90;;;;;;467131;254;29229;-76
2022/02/21 01:19:22;;;;;;;2.93;1.50;;;7.70;99.90;;;;;;467129;254;28046;-75
2022/02/21 01:21:23;;;;;;;4.87;2.17;;;7.60;99.90;;;;;;467157;254;28155;-76
2022/02/21 01:23:24;;;;;;;3.77;1.80;;;7.70;99.90;;;;;;467139;254;27563;-76
2022/02/21 01:25:26;;;;;;;6.50;1.80;;;7.70;99.90;;;;;;467107;254;28555;-77
2022/02/21 01:27:27;;;;;;;5.80;2.10;;;7.60;99.90;;;;;;467161;254;28419;-75
2022/02/21 01:29:28;;;;;;;2.60;1.57;;;7.70;99.90;;;;;;467148;254;28399;-76
2022/02/21 01:31:30;;;;;;;3.50;1.73;;;7.60;99.90;;;;;;467151;254;28552;-76
2022/02/21 01:33:31;;;;;;;6.37;2.30;;;7.70;99.90;;;;;;467150;254;28347;-77
2022/02/21 01:35:32;;;;;;;3.23;1.80;;;7.70;99.90;;;;;;467168;252;28082;-73
2022/02/21 01:37:33;;;;;;;3.60;1.60;;;7.70;99.90;;;;;;467169;254;28939;-76
2022/02/21 01:39:34;;;;;;;2.73;1.50;;;7.70;99.90;;;;;;467179;254;28176;-76
2022/02/21 01:41:36;;;;;;;2.17;1.50;;;7.70;99.90;;;;;;467149;252;28074;-76
2022/02/21 01:43:37;;;;;;;2.20;1.50;;;7.60;99.90;;;;;;467151;254;27635;-77
2022/02/21 01:45:38;;;;;;;2.67;1.70;;;7.60;99.90;;;;;;467155;254;27994;-77
2022/02/21 01:47:39;;;;;;;4.23;1.50;;;7.60;99.90;;;;;;467205;254;27844;-76
2022/02/21 01:49:41;;;;;;;3.73;1.70;;;7.70;99.90;;;;;;467195;252;27724;-76
2022/02/21 01:51:42;;;;;;;1.80;1.30;;;7.70;99.90;;;;;;467088;254;27871;-76
2022/02/21 01:53:43;;;;;;;2.20;1.83;;;7.60;99.90;;;;;;467135;254;27941;-76
2022/02/21 01:55:44;;;;;;;2.40;1.50;;;7.70;99.90;;;;;;467181;254;28064;-76
2022/02/21 01:57:48;;;;;;;1.80;1.43;;;;;;;;;;467156;254;27992;-75
2022/02/21 01:59:48;;;;;;;1.67;1.20;;;7.50;99.90;;;;;;467143;253;27480;-75
2022/02/21 02:01:49;;;;;;;1.40;1.30;;;7.40;99.90;;;;;;467185;254;28285;-76
2022/02/21 02:03:50;;;;;;;1.80;1.23;;;7.20;99.90;;;;;;467158;254;28344;-76
2022/02/21 02:05:51;;;;;;;3.50;1.30;;;7.10;99.90;;;;;;467140;254;28492;-76
2022/02/21 02:07:53;;;;;;;2.73;1.47;;;7.00;99.90;;;;;;467120;254;27967;-76
2022/02/21 02:09:54;;;;;;;4.07;1.30;;;6.90;99.90;;;;;;467154;254;28003;-76
2022/02/21 02:11:55;;;;;;;3.00;1.50;;;6.80;99.90;;;;;;467158;253;27568;-75
2022/02/21 02:13:56;;;;;;;2.22;1.50;;;6.70;99.90;;;;;;467118;254;28944;-76
2022/02/21 02:15:58;;;;;;;1.75;1.40;;;6.40;99.90;;;;;;467147;254;27453;-75
2022/02/21 02:17:59;;;;;;;2.85;1.55;;;6.40;99.90;;;;;;467153;254;27518;-75
2022/02/21 02:20:00;;;;;;;4.07;1.50;;;6.30;99.90;;;;;;467177;254;27472;-76
2022/02/21 02:22:01;;;;;;;2.40;1.73;;;6.20;99.90;;;;;;467164;254;28464;-75
2022/02/21 02:24:03;;;;;;;4.07;1.40;;;6.10;99.90;;;;;;467120;254;27995;-75
2022/02/21 02:26:04;;;;;;;5.07;1.48;;;6.10;99.90;;;;;;467124;252;28019;-75
2022/02/21 02:28:05;;;;;;;2.35;1.77;;;5.80;99.90;;;;;;467132;254;27477;-75
2022/02/21 02:30:06;;;;;;;4.62;1.60;;;5.60;99.90;;;;;;467143;254;27590;-75
2022/02/21 02:32:08;;;;;;;5.37;1.73;;;5.50;99.90;;;;;;467130;254;27540;-75
2022/02/21 02:34:09;;;;;;;3.50;1.87;;;5.60;99.90;;;;;;467131;254;27481;-76
2022/02/21 02:36:10;;;;;;;8.65;2.62;;;5.60;99.90;;;;;;467153;254;27446;-75
2022/02/21 02:38:11;;;;;;;4.10;1.95;;;5.50;99.90;;;;;;467138;254;28083;-75
2022/02/21 02:40:13;;;;;;;9.30;2.40;;;5.50;99.90;;;;;;467140;254;28044;-75
2022/02/21 02:42:14;;;;;;;4.97;1.60;;;5.50;99.90;;;;;;467142;254;27458;-75
2022/02/21 02:44:15;;;;;;;6.57;2.42;;;5.40;99.90;;;;;;467127;254;27493;-75
2022/02/21 02:46:16;;;;;;;4.75;1.70;;;5.40;99.90;;;;;;467136;254;27476;-76
2022/02/21 02:48:18;;;;;;;3.22;1.60;;;5.40;99.90;;;;;;467151;254;27493;-76
2022/02/21 02:50:19;;;;;;;3.40;1.95;;;5.30;99.90;;;;;;467175;254;27744;-75
2022/02/21 02:52:20;;;;;;;8.35;1.80;;;5.30;99.90;;;;;;467160;254;27585;-76
2022/02/21 02:54:21;;;;;;;6.10;1.95;;;5.30;99.90;;;;;;467142;254;28089;-76
2022/02/21 02:56:23;;;;;;;7.37;2.33;;;5.30;99.90;;;;;;467162;254;27916;-75
2022/02/21 02:58:24;;;;;;;4.45;2.05;;;5.30;99.90;;;;;;467122;254;28036;-75
2022/02/21 03:00:25;;;;;;;5.37;2.28;;;5.30;99.90;;;;;;467081;252;27505;-76
2022/02/21 03:02:27;;;;;;;9.95;2.50;;;5.30;99.90;;;;;;467163;252;27442;-75
2022/02/21 03:04:28;;;;;;;6.18;2.37;;;5.30;99.90;;;;;;467135;254;27488;-76
2022/02/21 03:06:29;;;;;;;4.43;1.75;;;5.30;99.90;;;;;;467079;254;27507;-75
2022/02/21 03:08:30;;;;;;;7.75;2.33;;;5.30;99.90;;;;;;467119;254;27457;-76
2022/02/21 03:10:32;;;;;;;7.22;2.35;;;5.20;99.90;;;;;;467153;254;27562;-76
2022/02/21 03:12:33;;;;;;;4.75;2.10;;;5.20;99.90;;;;;;467134;254;28027;-75
2022/02/21 03:14:34;;;;;;;7.10;1.80;;;5.20;99.90;;;;;;467133;254;27979;-75
2022/02/21 03:16:35;;;;;;;6.25;1.92;;;5.20;99.90;;;;;;467133;251;27897;-74
2022/02/21 03:18:37;;;;;;;9.57;1.90;;;5.20;99.90;;;;;;467114;254;27473;-75
2022/02/21 03:20:38;;;;;;;6.05;2.45;;;5.20;99.90;;;;;;467155;254;27542;-76
2022/02/21 03:22:39;;;;;;;8.32;2.33;;;5.20;99.90;;;;;;467177;254;27461;-75
2022/02/21 03:24:40;;;;;;;4.62;2.30;;;5.10;99.90;;;;;;467150;254;27497;-76
2022/02/21 03:26:42;;;;;;;7.55;2.12;;;5.20;99.90;;;;;;467145;254;27501;-75
2022/02/21 03:28:43;;;;;;;5.20;2.15;;;5.20;99.90;;;;;;467144;254;27508;-76
2022/02/21 03:30:44;;;;;;;7.10;1.80;;;5.20;99.90;;;;;;467160;254;28641;-76
2022/02/21 03:32:45;;;;;;;5.62;2.37;;;5.10;99.90;;;;;;467161;254;27972;-76
2022/02/21 03:34:47;;;;;;;7.57;2.55;;;5.10;99.90;;;;;;467146;254;27953;-75
2022/02/21 03:36:48;;;;;;;6.72;2.37;;;5.10;99.90;;;;;;467143;254;27455;-75
2022/02/21 03:38:49;;;;;;;9.70;2.60;;;5.10;99.90;;;;;;467143;254;27556;-75
2022/02/21 03:40:52;;;;;;;8.13;2.25;;;5.10;99.90;;;;;;467138;254;27438;-76
2022/02/21 03:42:52;;;;;;;4.95;1.80;;;5.10;99.90;;;;;;467113;252;27489;-76
2022/02/21 03:44:53;;;;;;;5.95;2.00;;;5.10;99.90;;;;;;467141;252;27512;-76
2022/02/21 03:46:54;;;;;;;6.50;2.20;;;5.00;99.90;;;;;;467154;254;27450;-76
2022/02/21 03:48:55;;;;;;;7.37;2.00;;;5.10;99.90;;;;;;467158;254;27892;-76
2022/02/21 03:50:57;;;;;;;7.95;3.33;;;5.00;99.90;;;;;;467145;254;27916;-76
2022/02/21 03:52:58;;;;;;;6.80;2.25;;;5.00;99.90;;;;;;467143;254;28014;-76
2022/02/21 03:54:59;;;;;;;10.70;2.40;;;4.90;99.90;;;;;;467161;254;27588;-76
2022/02/21 03:57:00;;;;;;;8.43;2.05;;;4.90;99.90;;;;;;467157;254;27454;-76
2022/02/21 03:59:02;;;;;;;7.57;2.00;;;4.90;99.90;;;;;;467140;254;27492;-76
2022/02/21 04:01:03;;;;;;;7.85;2.15;;;4.90;99.90;;;;;;467127;254;27497;-76
2022/02/21 04:03:04;;;;;;;3.72;2.00;;;4.90;99.90;;;;;;467125;254;27485;-75
2022/02/21 04:05:05;;;;;;;10.23;2.22;;;4.90;99.90;;;;;;467145;254;27497;-76
2022/02/21 04:07:07;;;;;;;7.80;2.00;;;4.90;99.90;;;;;;467135;254;27900;-75
2022/02/21 04:09:08;;;;;;;6.57;2.30;;;4.90;99.90;;;;;;467136;252;27972;-76
2022/02/21 04:11:09;;;;;;;9.30;2.50;;;4.80;99.90;;;;;;467110;254;27907;-76
2022/02/21 04:13:10;;;;;;;5.32;1.92;;;4.70;99.90;;;;;;467169;254;27505;-76
2022/02/21 04:15:12;;;;;;;16.87;2.50;;;4.70;99.90;;;;;;467154;254;27593;-76
2022/02/21 04:17:13;;;;;;;5.95;2.22;;;4.70;99.90;;;;;;467171;252;27526;-75
2022/02/21 04:19:14;;;;;;;5.70;2.10;;;4.60;99.90;;;;;;467180;254;27585;-75
2022/02/21 04:21:15;;;;;;;8.32;2.42;;;4.60;99.90;;;;;;467140;254;27647;-75
2022/02/21 04:23:17;;;;;;;7.95;2.45;;;4.60;99.90;;;;;;467134;254;27573;-76
2022/02/21 04:25:18;;;;;;;7.60;2.50;;;4.60;99.90;;;;;;467161;254;27514;-75
2022/02/21 04:27:19;;;;;;;7.53;2.20;;;4.50;99.90;;;;;;467106;254;27908;-75
2022/02/21 04:29:20;;;;;;;4.97;1.80;;;4.50;99.90;;;;;;467118;254;28054;-76
2022/02/21 04:31:22;;;;;;;9.75;2.97;;;4.50;99.90;;;;;;467133;254;28062;-76
2022/02/21 04:33:23;;;;;;;5.80;2.37;;;4.40;99.90;;;;;;467120;254;27567;-75
2022/02/21 04:35:25;;;;;;;5.15;2.08;;;4.40;99.90;;;;;;467141;254;27602;-76
2022/02/21 04:37:25;;;;;;;6.03;2.03;;;4.30;99.90;;;;;;467137;254;27448;-76
2022/02/21 04:39:27;;;;;;;11.38;2.30;;;4.30;99.90;;;;;;467133;254;27500;-76
2022/02/21 04:41:28;;;;;;;7.05;2.80;;;4.30;99.90;;;;;;467121;254;27457;-76
2022/02/21 04:43:29;;;;;;;4.47;1.85;;;4.20;99.90;;;;;;467107;254;27489;-76
2022/02/21 04:45:30;;;;;;;6.78;2.15;;;4.10;99.90;;;;;;467144;254;27469;-76
2022/02/21 04:47:32;;;;;;;10.75;2.55;;;4.20;99.90;;;;;;467124;254;27499;-76
2022/02/21 04:49:33;;;;;;;6.47;2.20;;;4.10;99.90;;;;;;467094;254;27953;-76
2022/02/21 04:51:34;;;;;;;8.00;2.60;;;4.00;99.90;;;;;;467126;254;29278;-75
2022/02/21 04:53:35;;;;;;;11.00;2.87;;;3.90;99.90;;;;;;467133;254;27594;-75
2022/02/21 04:55:37;;;;;;;8.40;3.20;;;3.90;99.90;;;;;;467077;254;27501;-75
2022/02/21 04:57:38;;;;;;;9.80;2.50;;;3.90;99.90;;;;;;467106;252;27480;-76
2022/02/21 04:59:39;;;;;;;5.72;2.58;;;3.90;99.90;;;;;;467092;254;27509;-75
2022/02/21 05:01:41;;;;;;;10.85;2.90;;;3.80;99.90;;;;;;467092;250;27518;-76
2022/02/21 05:03:42;;;;;;;9.98;3.65;;;3.70;99.90;;;;;;467106;252;27504;-76
2022/02/21 05:05:43;;;;;;;10.98;3.62;;;3.80;99.90;;;;;;467119;254;27852;-76
2022/02/21 05:07:46;;;;;;;8.60;2.40;;;3.80;99.90;;;;;;467126;254;27454;-75
2022/02/21 05:09:46;;;;;;;9.02;3.00;;;3.70;99.90;;;;;;467086;252;27976;-76
2022/02/21 05:11:47;;;;;;;10.05;2.60;;;3.70;99.90;;;;;;467113;254;27927;-76
2022/02/21 05:13:48;;;;;;;8.07;2.50;;;3.70;99.90;;;;;;467107;254;27983;-76
2022/02/21 05:15:49;;;;;;;7.50;2.62;;;3.70;99.90;;;;;;467103;254;28048;-75
2022/02/21 05:17:51;;;;;;;10.50;3.20;;;3.60;99.90;;;;;;467141;254;27537;-76
2022/02/21 05:19:52;;;;;;;12.32;2.58;;;3.60;99.90;;;;;;467127;254;27489;-76
2022/02/21 05:21:53;;;;;;;10.85;2.80;;;3.60;99.90;;;;;;467126;251;27446;-75
2022/02/21 05:23:54;;;;;;;18.10;2.67;;;3.50;99.90;;;;;;467106;254;27493;-76
2022/02/21 05:25:56;;;;;;;8.30;2.60;;;3.50;99.90;;;;;;467143;254;27861;-75
2022/02/21 05:27:57;;;;;;;5.12;2.45;;;3.40;99.90;;;;;;467133;252;27518;-75
2022/02/21 05:29:58;;;;;;;9.02;2.45;;;3.40;99.90;;;;;;467168;254;27478;-75
2022/02/21 05:31:59;;;;;;;10.57;2.67;;;3.40;99.90;;;;;;467133;254;27516;-76
2022/02/21 05:34:01;;;;;;;4.43;2.25;;;3.50;99.90;;;;;;467127;254;27952;-76
2022/02/21 05:36:02;;;;;;;6.55;2.40;;;3.40;99.90;;;;;;467170;254;27964;-75
2022/02/21 05:38:03;;;;;;;7.37;2.65;;;3.40;99.90;;;;;;467160;254;27911;-75
2022/02/21 05:40:04;;;;;;;11.65;2.95;;;3.40;99.90;;;;;;467144;254;27956;-76
2022/02/21 05:42:06;;;;;;;5.05;2.70;;;3.40;99.90;;;;;;467166;254;27446;-76
2022/02/21 05:44:07;;;;;;;7.95;2.50;;;3.30;99.90;;;;;;467144;254;27489;-76
2022/02/21 05:46:08;;;;;;;4.32;2.70;;;3.40;99.90;;;;;;467151;252;27494;-75
2022/02/21 05:48:09;;;;;;;8.85;2.90;;;3.40;99.90;;;;;;467151;254;27461;-75
2022/02/21 05:50:11;;;;;;;8.20;2.95;;;3.30;99.90;;;;;;467122;254;27489;-76
2022/02/21 05:52:12;;;;;;;8.10;3.10;;;3.40;99.90;;;;;;467108;250;27593;-75
2022/02/21 05:54:13;;;;;;;11.88;3.30;;;3.40;99.90;;;;;;467096;254;27572;-75
2022/02/21 05:56:14;;;;;;;13.52;3.30;;;3.40;99.90;;;;;;467129;254;27503;-76
2022/02/21 05:58:16;;;;;;;12.35;3.15;;;3.40;99.90;;;;;;467110;254;27925;-75
2022/02/21 06:00:17;;;;;;;9.35;3.03;;;3.40;99.90;;;;;;467126;254;27949;-75
2022/02/21 06:02:18;;;;;;;13.88;3.20;;;3.40;99.90;;;;;;467102;254;27908;-76
2022/02/21 06:04:19;;;;;;;10.00;3.00;;;3.40;99.90;;;;;;467103;254;27482;-75
2022/02/21 06:06:21;;;;;;;9.57;2.70;;;3.40;99.90;;;;;;467133;254;27564;-75
2022/02/21 06:08:23;;;;;;;13.32;3.75;;;3.30;99.90;;;;;;467104;254;27450;-75
2022/02/21 06:10:23;;;;;;;7.55;2.62;;;3.30;99.90;;;;;;467123;254;27522;-76
2022/02/21 06:12:24;;;;;;;7.93;3.17;;;3.30;99.90;;;;;;467123;254;27446;-76
2022/02/21 06:14:26;;;;;;;16.52;4.75;;;3.30;99.90;;;;;;467097;254;27501;-75
2022/02/21 06:16:27;;;;;;;14.18;4.05;;;3.40;99.90;;;;;;467133;252;27846;-76
2022/02/21 06:18:28;;;;;;;19.73;4.15;;;3.40;99.90;;;;;;467137;254;27449;-75
2022/02/21 06:20:30;;;;;;;12.73;4.12;;;3.30;99.90;;;;;;467129;254;27958;-76
2022/02/21 06:22:31;;;;;;;9.00;3.60;;;3.30;99.90;;;;;;467111;252;27923;-75
2022/02/21 06:24:32;;;;;;;11.63;3.62;;;3.30;99.90;;;;;;467126;254;28078;-75
2022/02/21 06:26:33;;;;;;;14.13;4.37;;;3.30;99.90;;;;;;467114;254;27565;-75
2022/02/21 06:28:34;;;;;;;8.73;4.07;;;3.30;99.90;;;;;;467138;254;27535;-76
2022/02/21 06:30:36;;;;;;;19.30;4.00;;;3.30;99.90;;;;;;467126;254;27497;-75
2022/02/21 06:32:37;;;;;;;8.73;3.22;;;3.40;99.90;;;;;;467095;254;27535;-75
2022/02/21 06:34:38;;;;;;;11.05;3.40;;;3.30;99.90;;;;;;467105;254;27586;-75
2022/02/21 06:36:40;;;;;;;7.15;3.08;;;3.40;99.90;;;;;;467124;254;27561;-75
2022/02/21 06:38:41;;;;;;;9.88;4.40;;;3.40;99.90;;;;;;467115;254;27464;-75
2022/02/21 06:40:42;;;;;;;11.40;3.60;;;3.50;99.90;;;;;;467132;254;27497;-76
2022/02/21 06:42:43;;;;;;;18.42;3.80;;;3.50;99.90;;;;;;467101;254;27928;-75
2022/02/21 06:44:44;;;;;;;6.57;3.05;;;3.50;99.90;;;;;;467148;254;27960;-75
2022/02/21 06:46:46;;;;;;;15.02;4.53;;;3.60;99.90;;;;;;467138;254;27999;-75
2022/02/21 06:48:47;;;;;;;13.20;4.28;;;3.60;99.90;;;;;;467111;254;27545;-75
2022/02/21 06:50:48;;;;;;;14.40;3.70;;;3.60;99.90;;;;;;467141;254;27560;-75
2022/02/21 06:52:49;;;;;;;6.60;3.58;;;3.60;99.90;;;;;;467118;254;27443;-76
2022/02/21 06:54:52;;;;;;;9.48;3.22;;;3.70;99.90;;;;;;467085;254;27473;-76
2022/02/21 06:56:52;;;;;;;14.07;3.47;;;3.70;99.90;;;;;;467058;253;27509;-75
2022/02/21 06:58:53;;;;;;;13.13;4.65;;;3.70;99.90;;;;;;467107;254;27581;-75
2022/02/21 07:00:54;;;;;;;12.30;3.67;;;3.70;99.90;;;;;;467111;254;27517;-76
2022/02/21 07:02:56;;;;;;;11.75;3.40;;;3.70;99.90;;;;;;467094;254;27480;-75
2022/02/21 07:04:57;;;;;;;11.25;3.15;;;3.60;99.90;;;;;;467108;254;27964;-76
2022/02/21 07:06:58;;;;;;;8.63;3.05;;;3.60;99.90;;;;;;466981;251;27921;-75
2022/02/21 07:08:59;;;;;;;15.00;3.45;;;3.60;99.90;;;;;;467112;254;27995;-75
2022/02/21 07:11:01;;;;;;;7.28;3.35;;;3.60;99.90;;;;;;467136;254;27566;-76
2022/02/21 07:13:02;;;;;;;11.15;4.03;;;3.60;99.90;;;;;;467091;254;27541;-75
2022/02/21 07:15:03;;;;;;;7.95;3.33;;;3.70;99.90;;;;;;467112;253;27494;-77
2022/02/21 07:17:04;;;;;;;9.55;3.60;;;3.70;99.90;;;;;;467101;254;27544;-76
2022/02/21 07:19:06;;;;;;;9.50;3.05;;;3.70;99.90;;;;;;467088;254;27501;-76
2022/02/21 07:21:07;;;;;;;10.13;3.83;;;3.80;99.90;;;;;;467109;254;27932;-76
2022/02/21 07:23:08;;;;;;;9.98;3.37;;;3.80;99.90;;;;;;467080;254;27452;-75
2022/02/21 07:25:09;;;;;;;14.82;3.42;;;3.80;99.90;;;;;;467122;254;27502;-76
2022/02/21 07:27:11;;;;;;;9.88;4.05;;;3.80;99.90;;;;;;467091;254;27891;-75
2022/02/21 07:29:12;;;;;;;11.35;3.80;;;3.80;99.90;;;;;;467096;254;27983;-76
2022/02/21 07:31:13;;;;;;;10.90;3.53;;;3.80;99.90;;;;;;467132;254;28100;-76
2022/02/21 07:33:14;;;;;;;15.73;3.25;;;3.80;99.90;;;;;;467133;254;27450;-75
2022/02/21 07:35:16;;;;;;;9.00;3.40;;;3.70;99.90;;;;;;467151;254;27485;-76
2022/02/21 07:37:17;;;;;;;16.17;3.90;;;3.80;99.90;;;;;;467118;254;27449;-76
2022/02/21 07:39:18;;;;;;;10.32;3.17;;;3.80;99.90;;;;;;467124;254;27573;-76
2022/02/21 07:41:19;;;;;;;10.30;3.40;;;3.90;99.90;;;;;;467138;254;27626;-76
2022/02/21 07:43:21;;;;;;;10.75;2.92;;;4.00;99.90;;;;;;467143;252;27537;-76
2022/02/21 07:45:22;;;;;;;11.32;3.28;;;4.00;99.90;;;;;;467141;254;27501;-75
2022/02/21 07:47:23;;;;;;;10.85;3.78;;;4.00;99.90;;;;;;467154;251;27911;-76
2022/02/21 07:49:24;;;;;;;10.02;3.25;;;3.90;99.90;;;;;;467142;252;28075;-76
2022/02/21 07:51:26;;;;;;;7.57;3.08;;;3.80;99.90;;;;;;467167;254;27882;-75
2022/02/21 07:53:27;;;;;;;11.35;3.70;;;3.70;99.90;;;;;;467173;254;27470;-75
2022/02/21 07:55:28;;;;;;;6.78;2.95;;;3.30;99.90;;;;;;467183;254;27513;-76
2022/02/21 07:57:29;;;;;;;9.20;2.50;;;3.00;99.90;;;;;;467143;254;27450;-75
2022/02/21 07:59:31;;;;;;;7.82;3.05;;;2.80;99.90;;;;;;467115;254;27485;-75
2022/02/21 08:01:32;;;;;;;5.03;2.30;;;2.50;99.90;;;;;;467122;254;27472;-75
2022/02/21 08:03:36;;;;;;;4.30;2.55;;;2.30;99.90;;;;;;467119;254;27473;-75
2022/02/21 08:05:36;;;;;;;4.50;2.40;;;2.10;99.90;;;;;;467115;254;27594;-75
2022/02/21 08:07:36;;;;;;;3.80;2.40;;;2.00;99.90;;;;;;467125;254;28705;-75
2022/02/21 08:09:37;;;;;;;4.12;2.25;;;2.00;99.90;;;;;;467142;254;28033;-75
2022/02/21 08:11:38;;;;;;;2.50;2.28;;;2.00;99.90;;;;;;467158;254;27985;-75
2022/02/21 08:13:40;;;;;;;2.03;1.92;;;1.80;99.90;;;;;;467117;252;27968;-75
2022/02/21 08:15:41;;;;;;;3.35;2.20;;;1.80;99.90;;;;;;467155;254;27569;-76
2022/02/21 08:17:42;;;;;;;2.42;2.22;;;1.90;99.90;;;;;;467146;254;27497;-76
2022/02/21 08:19:43;;;;;;;2.40;2.20;;;2.00;99.90;;;;;;467116;252;27605;-75
2022/02/21 08:21:45;;;;;;;2.37;2.22;;;2.00;99.90;;;;;;467132;254;27537;-75
2022/02/21 08:23:46;;;;;;;2.00;1.90;;;2.00;99.90;;;;;;467126;254;27561;-76
2022/02/21 08:25:47;;;;;;;2.20;2.03;;;2.10;99.90;;;;;;467146;254;27901;-76
2022/02/21 08:27:48;;;;;;;2.37;2.22;;;2.10;99.90;;;;;;467123;254;27454;-75
2022/02/21 08:29:50;;;;;;;2.58;2.37;;;2.30;99.90;;;;;;467121;254;27481;-76
2022/02/21 08:31:54;;;;;;;2.70;2.50;;;2.20;99.90;;;;;;467143;254;27958;-75
2022/02/21 08:33:52;;;;;;;3.35;3.05;;;2.20;99.90;;;;;;467063;253;27984;-76
2022/02/21 08:35:53;;;;;;;2.75;2.65;;;2.20;99.90;;;;;;467112;254;28148;-75
2022/02/21 08:37:56;;;;;;;3.03;2.50;;;2.20;99.90;;;;;;467142;254;27907;-75
2022/02/21 08:39:56;;;;;;;2.75;2.55;;;2.30;99.90;;;;;;467086;254;27574;-76
2022/02/21 08:41:57;;;;;;;2.72;2.30;;;2.50;99.90;;;;;;467130;254;27443;-75
2022/02/21 08:43:58;;;;;;;3.40;2.22;;;2.60;99.90;;;;;;467134;254;27477;-76
2022/02/21 08:46:00;;;;;;;2.90;2.58;;;2.70;99.90;;;;;;467118;254;27453;-75
2022/02/21 08:48:01;;;;;;;4.03;2.10;;;2.90;99.90;;;;;;467110;254;27471;-76
2022/02/21 08:50:04;;;;;;;4.30;2.40;;;2.90;99.90;;;;;;467139;254;27525;-76
2022/02/21 08:52:03;;;;;;;5.20;2.05;;;3.00;99.90;;;;;;467140;253;27551;-76
2022/02/21 08:54:05;;;;;;;2.90;1.98;;;3.00;99.90;;;;;;467173;254;27477;-76
2022/02/21 08:56:06;;;;;;;3.28;2.20;;;2.90;99.90;;;;;;467144;254;27493;-76
2022/02/21 08:58:07;;;;;;;2.55;2.05;;;2.90;99.90;;;;;;467138;254;27482;-76
2022/02/21 09:00:08;;;;;;;5.15;2.40;;;3.10;99.90;;;;;;467183;254;27996;-76
2022/02/21 09:02:10;;;;;;;3.45;2.25;;;3.10;99.90;;;;;;467141;254;27997;-77
2022/02/21 09:04:11;;;;;;;4.55;2.90;;;3.20;99.90;;;;;;467117;254;28084;-77
2022/02/21 09:06:12;;;;;;;5.75;2.55;;;3.30;99.90;;;;;;467120;254;27981;-76
2022/02/21 09:08:13;;;;;;;5.10;2.25;;;3.30;99.90;;;;;;467121;252;27557;-76
2022/02/21 09:10:15;;;;;;;5.90;2.33;;;3.30;99.90;;;;;;467158;252;27570;-76
2022/02/21 09:12:16;;;;;;;3.65;2.53;;;3.30;99.90;;;;;;467149;254;27467;-76
2022/02/21 09:14:17;;;;;;;3.70;2.20;;;3.30;99.90;;;;;;467133;254;27505;-76
2022/02/21 09:16:18;;;;;;;5.65;2.37;;;3.30;99.90;;;;;;467123;254;27441;-76
2022/02/21 09:18:20;;;;;;;4.15;2.30;;;3.30;99.90;;;;;;467125;254;27577;-77
2022/02/21 09:20:21;;;;;;;4.05;2.10;;;3.40;99.90;;;;;;467137;254;27858;-76
2022/02/21 09:22:22;;;;;;;3.90;2.10;;;3.50;99.90;;;;;;467127;254;27584;-76
2022/02/21 09:24:23;;;;;;;2.55;2.20;;;3.60;99.90;;;;;;467091;254;27493;-76
2022/02/21 09:26:27;;;;;;;4.05;2.75;;;3.70;99.90;;;;;;467133;254;27476;-76
2022/02/21 09:28:26;;;;;;;4.68;2.67;;;3.60;99.90;;;;;;467069;249;27987;-76
2022/02/21 09:30:27;;;;;;;4.90;2.15;;;3.60;99.90;;;;;;467136;254;28143;-76
2022/02/21 09:32:29;;;;;;;2.58;2.15;;;3.70;99.90;;;;;;467128;254;27913;-76
2022/02/21 09:34:30;;;;;;;3.70;2.00;;;3.90;99.90;;;;;;467095;254;27501;-76
2022/02/21 09:36:31;;;;;;;7.65;2.45;;;3.90;99.90;;;;;;467138;254;27447;-76
2022/02/21 09:38:32;;;;;;;3.80;2.05;;;4.00;99.90;;;;;;467147;254;27597;-76
2022/02/21 09:40:33;;;;;;;3.28;2.28;;;4.10;99.90;;;;;;467135;254;27489;-76
2022/02/21 09:42:35;;;;;;;2.65;1.77;;;4.20;99.90;;;;;;467131;253;27481;-74
2022/02/21 09:44:36;;;;;;;3.83;1.70;;;4.20;99.90;;;;;;467137;254;27501;-72
2022/02/21 09:46:38;;;;;;;3.20;1.60;;;4.20;99.90;;;;;;467145;248;27539;-73
2022/02/21 09:48:39;;;;;;;3.70;2.03;;;4.20;99.90;;;;;;467100;254;27549;-73
2022/02/21 09:50:40;;;;;;;4.37;1.62;;;4.10;99.90;;;;;;467134;254;28033;-73
2022/02/21 09:52:41;;;;;;;4.50;1.90;;;4.10;99.90;;;;;;467147;254;27928;-73
2022/02/21 09:54:42;;;;;;;2.22;1.58;;;4.30;99.90;;;;;;467138;254;27521;-74
2022/02/21 09:56:43;;;;;;;3.85;1.67;;;4.30;99.90;;;;;;467140;254;27454;-73
2022/02/21 09:58:45;;;;;;;4.85;1.70;;;4.20;99.90;;;;;;467145;254;27472;-74
2022/02/21 10:00:46;;;;;;;2.90;1.52;;;4.20;99.90;;;;;;467150;252;27462;-73
2022/02/21 10:02:47;;;;;;;4.43;1.90;;;4.10;99.90;;;;;;467168;254;27445;-73
2022/02/21 10:04:48;;;;;;;2.60;1.62;;;4.20;99.90;;;;;;467095;254;27597;-74
2022/02/21 10:06:50;;;;;;;4.22;2.00;;;4.40;99.90;;;;;;467157;254;27525;-72
2022/02/21 10:08:51;;;;;;;3.87;2.60;;;4.40;99.90;;;;;;467121;254;27532;-76
2022/02/21 10:10:52;;;;;;;4.97;2.50;;;4.30;99.90;;;;;;467134;254;28699;-76
2022/02/21 10:12:53;;;;;;;4.10;2.10;;;4.50;99.90;;;;;;467139;254;28000;-76
2022/02/21 10:14:55;;;;;;;5.85;2.22;;;4.40;99.90;;;;;;467136;254;27604;-76
2022/02/21 10:16:56;;;;;;;6.95;2.10;;;4.40;99.90;;;;;;467151;254;27446;-76
2022/02/21 10:18:57;;;;;;;9.88;2.40;;;4.30;99.90;;;;;;467120;254;27484;-76
2022/02/21 10:20:58;;;;;;;8.43;2.40;;;4.50;99.90;;;;;;467119;254;27462;-75
2022/02/21 10:23:00;;;;;;;4.37;2.20;;;4.60;99.90;;;;;;467125;254;27481;-75
2022/02/21 10:25:01;;;;;;;8.57;2.20;;;4.50;99.90;;;;;;467149;254;27493;-76
2022/02/21 10:27:02;;;;;;;6.03;2.35;;;4.40;99.90;;;;;;467142;254;27953;-76
2022/02/21 10:29:03;;;;;;;8.52;2.35;;;4.40;99.90;;;;;;467104;254;28006;-76
2022/02/21 10:31:05;;;;;;;8.52;2.15;;;4.40;99.90;;;;;;467121;254;27911;-76
2022/02/21 10:33:06;;;;;;;6.05;2.53;;;4.30;99.90;;;;;;467099;252;27469;-75
2022/02/21 10:35:07;;;;;;;9.68;2.80;;;4.40;99.90;;;;;;467143;254;27567;-77
2022/02/21 10:37:08;;;;;;;7.82;2.28;;;4.50;99.90;;;;;;467127;254;27461;-76